createdAt,value
2023-05-14T00:01:08.028Z,100958.94
2023-05-14T00:03:36.902Z,100959.47
2023-05-14T00:06:03.786Z,100958.66
2023-05-14T00:08:30.311Z,100955.19
2023-05-14T00:10:59.059Z,100952.84
2023-05-14T00:13:26.481Z,100947.47
2023-05-14T00:15:54.254Z,100954.47
2023-05-14T00:18:21.825Z,100949.34
2023-05-14T00:20:48.691Z,100953.81
2023-05-14T00:23:15.570Z,100947.91
2023-05-14T00:25:42.575Z,100943.59
2023-05-14T00:28:09.342Z,100941.97
2023-05-14T00:30:36.049Z,100933.31
2023-05-14T00:33:03.649Z,100933.25
2023-05-14T00:35:30.403Z,100933.69
2023-05-14T00:37:57.226Z,100935.19
2023-05-14T00:40:26.820Z,100929.88
2023-05-14T00:42:54.939Z,100933.84
2023-05-14T00:45:22.408Z,100928.44
2023-05-14T00:47:49.672Z,100938.25
2023-05-14T00:50:18.045Z,100927.75
2023-05-14T00:52:45.120Z,100934.03
2023-05-14T00:55:16.421Z,100923.09
2023-05-14T00:57:43.769Z,100929.34
2023-05-14T01:00:11.018Z,100936.63
2023-05-14T01:02:38.524Z,100942.97
2023-05-14T01:05:05.503Z,100942.44
2023-05-14T01:07:43.710Z,100937.91
2023-05-14T01:10:31.593Z,100944.00
2023-05-14T01:13:20.893Z,100945.41
2023-05-14T01:15:47.799Z,100939.09
2023-05-14T01:18:18.257Z,100932.22
2023-05-14T01:20:45.999Z,100939.97
2023-05-14T01:23:12.747Z,100935.72
2023-05-14T01:25:39.337Z,100924.72
2023-05-14T01:28:20.099Z,100927.19
2023-05-14T01:31:00.305Z,100926.63
2023-05-14T01:33:29.750Z,100924.56
2023-05-14T01:35:56.404Z,100928.13
2023-05-14T01:38:24.224Z,100928.25
2023-05-14T01:40:50.989Z,100926.63
2023-05-14T01:43:18.029Z,100930.56
2023-05-14T01:45:44.797Z,100925.81
2023-05-14T01:48:11.826Z,100931.03
2023-05-14T01:50:38.737Z,100925.00
2023-05-14T01:53:06.401Z,100933.69
2023-05-14T01:55:33.267Z,100931.28
2023-05-14T01:57:59.853Z,100923.28
2023-05-14T02:00:26.909Z,100919.25
2023-05-14T02:02:53.668Z,100922.94
2023-05-14T02:05:20.992Z,100923.84
2023-05-14T02:07:48.222Z,100920.03
2023-05-14T02:10:14.936Z,100914.78
2023-05-14T02:12:41.822Z,100920.03
2023-05-14T02:15:10.986Z,100912.97
2023-05-14T02:17:38.023Z,100919.81
2023-05-14T02:20:05.460Z,100919.25
2023-05-14T02:22:33.138Z,100921.78
2023-05-14T02:25:00.002Z,100919.34
2023-05-14T02:27:26.895Z,100922.69
2023-05-14T02:29:54.017Z,100922.03
2023-05-14T02:32:21.106Z,100909.06
2023-05-14T02:34:48.060Z,100912.97
2023-05-14T02:37:14.824Z,100906.19
2023-05-14T02:39:41.691Z,100900.63
2023-05-14T02:42:08.405Z,100907.75
2023-05-14T02:44:36.058Z,100910.22
2023-05-14T02:47:03.123Z,100898.75
2023-05-14T02:49:30.043Z,100902.66
2023-05-14T02:51:56.788Z,100903.25
2023-05-14T02:54:24.112Z,100896.53
2023-05-14T02:56:51.237Z,100892.03
2023-05-14T02:59:18.374Z,100892.44
2023-05-14T03:01:45.802Z,100895.69
2023-05-14T03:04:13.525Z,100896.94
2023-05-14T03:06:40.333Z,100887.53
2023-05-14T03:09:07.951Z,100882.81
2023-05-14T03:11:34.884Z,100884.56
2023-05-14T03:14:01.575Z,100893.16
2023-05-14T03:16:28.370Z,100888.53
2023-05-14T03:18:55.482Z,100886.59
2023-05-14T03:21:22.201Z,100888.78
2023-05-14T03:23:49.108Z,100888.06
2023-05-14T03:26:16.243Z,100887.59
2023-05-14T03:28:43.943Z,100881.00
2023-05-14T03:31:10.734Z,100881.56
2023-05-14T03:33:37.566Z,100887.38
2023-05-14T03:36:05.366Z,100879.22
2023-05-14T03:38:32.709Z,100886.66
2023-05-14T03:40:59.342Z,100888.03
2023-05-14T03:43:26.416Z,100886.41
2023-05-14T03:45:53.256Z,100872.25
2023-05-14T03:48:20.167Z,100881.09
2023-05-14T03:50:47.297Z,100889.19
2023-05-14T03:53:14.142Z,100885.63
2023-05-14T03:55:40.913Z,100880.75
2023-05-14T03:58:13.576Z,100885.88
2023-05-14T04:00:45.001Z,100889.69
2023-05-14T04:03:12.391Z,100894.78
2023-05-14T04:05:39.430Z,100886.34
2023-05-14T04:08:06.692Z,100888.78
2023-05-14T04:10:33.516Z,100887.16
2023-05-14T04:13:00.302Z,100896.06
2023-05-14T04:15:27.174Z,100886.81
2023-05-14T04:17:54.371Z,100892.81
2023-05-14T04:20:21.844Z,100879.41
2023-05-14T04:22:49.291Z,100884.34
2023-05-14T04:25:15.984Z,100881.94
2023-05-14T04:27:43.964Z,100875.31
2023-05-14T04:30:11.778Z,100883.88
2023-05-14T04:32:39.219Z,100889.91
2023-05-14T04:35:06.748Z,100890.91
2023-05-14T04:37:34.230Z,100890.63
2023-05-14T04:40:01.048Z,100890.56
2023-05-14T04:42:27.866Z,100886.22
2023-05-14T04:44:54.497Z,100886.13
2023-05-14T04:47:21.601Z,100895.72
2023-05-14T04:49:48.606Z,100895.41
2023-05-14T04:52:15.359Z,100890.19
2023-05-14T04:54:42.622Z,100888.41
2023-05-14T04:57:09.440Z,100904.69
2023-05-14T04:59:36.019Z,100895.91
2023-05-14T05:02:02.696Z,100898.50
2023-05-14T05:04:29.430Z,100900.81
2023-05-14T05:06:56.430Z,100902.44
2023-05-14T05:09:24.064Z,100904.16
2023-05-14T05:11:51.564Z,100902.09
2023-05-14T05:14:18.605Z,100899.03
2023-05-14T05:16:46.191Z,100899.38
2023-05-14T05:19:13.919Z,100900.66
2023-05-14T05:21:40.936Z,100900.66
2023-05-14T05:24:08.184Z,100905.41
2023-05-14T05:26:36.821Z,100909.00
2023-05-14T05:29:04.839Z,100915.66
2023-05-14T05:31:32.194Z,100915.34
2023-05-14T05:34:00.694Z,100915.00
2023-05-14T05:36:28.607Z,100911.66
2023-05-14T05:38:56.142Z,100909.47
2023-05-14T05:41:23.007Z,100912.25
2023-05-14T05:43:49.760Z,100912.72
2023-05-14T05:46:16.653Z,100912.38
2023-05-14T05:48:43.469Z,100910.09
2023-05-14T05:51:11.025Z,100898.94
2023-05-14T05:53:37.598Z,100904.13
2023-05-14T05:56:04.251Z,100909.13
2023-05-14T05:58:30.872Z,100908.38
2023-05-14T06:00:58.113Z,100913.56
2023-05-14T06:03:25.013Z,100913.94
2023-05-14T06:05:52.656Z,100905.22
2023-05-14T06:08:19.501Z,100909.28
2023-05-14T06:10:47.626Z,100901.38
2023-05-14T06:13:14.745Z,100905.34
2023-05-14T06:15:41.598Z,100899.19
2023-05-14T06:18:08.283Z,100907.53
2023-05-14T06:20:34.946Z,100905.09
2023-05-14T06:23:02.363Z,100905.56
2023-05-14T06:25:29.508Z,100906.66
2023-05-14T06:27:57.062Z,100906.03
2023-05-14T06:30:23.951Z,100902.47
2023-05-14T06:32:51.823Z,100895.81
2023-05-14T06:35:19.131Z,100897.63
2023-05-14T06:37:46.037Z,100895.25
2023-05-14T06:40:15.478Z,100900.53
2023-05-14T06:42:42.571Z,100902.84
2023-05-14T06:45:09.630Z,100901.66
2023-05-14T06:47:36.655Z,100901.44
2023-05-14T06:50:03.750Z,100900.28
2023-05-14T06:52:31.527Z,100898.88
2023-05-14T06:54:58.572Z,100897.31
2023-05-14T06:57:25.347Z,100891.84
2023-05-14T06:59:52.370Z,100895.13
2023-05-14T07:02:19.237Z,100885.28
2023-05-14T07:04:46.065Z,100889.03
2023-05-14T07:07:15.319Z,100889.66
2023-05-14T07:09:42.670Z,100897.28
2023-05-14T07:12:09.578Z,100891.69
2023-05-14T07:14:36.297Z,100881.34
2023-05-14T07:17:03.012Z,100896.25
2023-05-14T07:19:30.127Z,100890.53
2023-05-14T07:21:57.708Z,100889.88
2023-05-14T07:24:24.283Z,100888.25
2023-05-14T07:26:51.163Z,100891.69
2023-05-14T07:29:18.118Z,100886.44
2023-05-14T07:31:44.989Z,100885.47
2023-05-14T07:34:12.752Z,100877.91
2023-05-14T07:36:39.553Z,100881.28
2023-05-14T07:39:06.520Z,100878.41
2023-05-14T07:41:33.182Z,100876.97
2023-05-14T07:44:00.224Z,100875.94
2023-05-14T07:46:27.773Z,100880.03
2023-05-14T07:48:54.984Z,100864.16
2023-05-14T07:51:21.533Z,100865.44
2023-05-14T07:53:48.434Z,100870.53
2023-05-14T07:56:15.201Z,100862.94
2023-05-14T07:58:41.856Z,100862.59
2023-05-14T08:01:09.159Z,100851.34
2023-05-14T08:03:36.236Z,100855.22
2023-05-14T08:06:03.917Z,100859.63
2023-05-14T08:08:31.082Z,100854.78
2023-05-14T08:10:57.796Z,100855.44
2023-05-14T08:13:25.676Z,100853.44
2023-05-14T08:15:52.578Z,100851.91
2023-05-14T08:18:19.604Z,100855.56
2023-05-14T08:20:46.924Z,100853.78
2023-05-14T08:23:14.178Z,100845.00
2023-05-14T08:25:41.309Z,100848.69
2023-05-14T08:28:09.074Z,100839.38
2023-05-14T08:30:36.658Z,100845.94
2023-05-14T08:33:05.677Z,100839.56
2023-05-14T08:35:32.551Z,100848.41
2023-05-14T08:37:59.180Z,100839.59
2023-05-14T08:40:26.885Z,100837.31
2023-05-14T08:42:56.766Z,100844.16
2023-05-14T08:45:33.979Z,100839.75
2023-05-14T08:48:02.699Z,100830.91
2023-05-14T08:50:32.712Z,100832.13
2023-05-14T08:52:59.560Z,100833.34
2023-05-14T08:55:26.657Z,100828.50
2023-05-14T08:57:53.755Z,100826.50
2023-05-14T09:00:20.941Z,100823.69
2023-05-14T09:02:49.176Z,100824.50
2023-05-14T09:05:17.236Z,100816.44
2023-05-14T09:07:45.465Z,100824.06
2023-05-14T09:10:12.834Z,100825.28
2023-05-14T09:12:40.406Z,100820.84
2023-05-14T09:15:08.034Z,100816.03
2023-05-14T09:17:35.615Z,100815.22
2023-05-14T09:20:03.960Z,100815.13
2023-05-14T09:22:33.834Z,100816.69
2023-05-14T09:25:05.941Z,100813.81
2023-05-14T09:27:55.328Z,100801.59
2023-05-14T09:30:42.539Z,100809.78
2023-05-14T09:33:29.395Z,100804.00
2023-05-14T09:35:59.971Z,100804.72
2023-05-14T09:38:29.808Z,100803.09
2023-05-14T09:40:58.888Z,100798.31
2023-05-14T09:43:26.662Z,100798.06
2023-05-14T09:45:54.085Z,100799.38
2023-05-14T09:48:40.536Z,100799.47
2023-05-14T09:51:31.408Z,100798.75
2023-05-14T09:54:07.111Z,100791.03
2023-05-14T09:56:55.465Z,100794.91
2023-05-14T09:59:24.355Z,100789.44
2023-05-14T10:01:53.596Z,100795.81
2023-05-14T10:04:20.902Z,100781.94
2023-05-14T10:06:51.646Z,100778.75
2023-05-14T10:09:26.104Z,100784.44
2023-05-14T10:11:58.230Z,100777.94
2023-05-14T10:14:29.252Z,100775.94
2023-05-14T10:16:58.902Z,100763.47
2023-05-14T10:19:29.332Z,100759.53
2023-05-14T10:22:01.924Z,100758.34
2023-05-14T10:24:29.530Z,100747.38
2023-05-14T10:26:56.699Z,100750.91
2023-05-14T10:29:33.657Z,100753.94
2023-05-14T10:32:05.969Z,100752.25
2023-05-14T10:34:33.275Z,100739.47
2023-05-14T10:37:21.115Z,100743.09
2023-05-14T10:39:56.444Z,100737.75
2023-05-14T10:42:40.475Z,100745.44
2023-05-14T10:45:09.085Z,100733.47
2023-05-14T10:47:37.942Z,100733.31
2023-05-14T10:50:07.181Z,100727.50
2023-05-14T10:52:35.343Z,100731.69
2023-05-14T10:55:04.410Z,100730.41
2023-05-14T10:57:32.681Z,100725.78
2023-05-14T11:00:01.023Z,100731.19
2023-05-14T11:02:36.933Z,100724.72
2023-05-14T11:05:05.742Z,100720.09
2023-05-14T11:07:38.456Z,100721.06
2023-05-14T11:10:07.546Z,100716.91
2023-05-14T11:12:36.613Z,100721.25
2023-05-14T11:15:07.101Z,100710.41
2023-05-14T11:17:35.537Z,100710.97
2023-05-14T11:20:02.906Z,100705.53
2023-05-14T11:22:30.053Z,100695.56
2023-05-14T11:24:57.563Z,100698.44
2023-05-14T11:27:24.532Z,100699.09
2023-05-14T11:29:51.180Z,100694.56
2023-05-14T11:32:19.350Z,100687.00
2023-05-14T11:34:46.852Z,100679.66
2023-05-14T11:37:16.039Z,100679.22
2023-05-14T11:39:49.774Z,100679.28
2023-05-14T11:42:18.650Z,100670.78
2023-05-14T11:44:48.986Z,100671.31
2023-05-14T11:47:17.388Z,100668.97
2023-05-14T11:49:44.725Z,100669.97
2023-05-14T11:52:14.058Z,100669.88
2023-05-14T11:54:43.074Z,100650.59
2023-05-14T11:57:21.682Z,100659.09
2023-05-14T11:59:49.758Z,100664.41
2023-05-14T12:02:19.776Z,100662.97
2023-05-14T12:04:51.792Z,100662.47
2023-05-14T12:07:19.012Z,100657.72
2023-05-14T12:09:51.089Z,100656.97
2023-05-14T12:12:21.200Z,100652.47
2023-05-14T12:14:49.500Z,100654.44
2023-05-14T12:17:22.745Z,100660.97
2023-05-14T12:19:51.321Z,100651.78
2023-05-14T12:22:20.561Z,100650.41
2023-05-14T12:24:55.290Z,100648.63
2023-05-14T12:27:28.123Z,100639.91
2023-05-14T12:32:37.963Z,100649.03
2023-05-14T12:35:05.959Z,100642.00
2023-05-14T12:37:33.995Z,100647.50
2023-05-14T12:40:00.741Z,100646.34
2023-05-14T12:42:27.689Z,100642.94
2023-05-14T12:44:54.626Z,100640.53
2023-05-14T12:47:21.495Z,100631.81
2023-05-14T12:49:48.345Z,100629.28
2023-05-14T12:54:45.799Z,100633.78
2023-05-14T12:57:13.222Z,100623.63
2023-05-14T12:59:39.887Z,100621.00
2023-05-14T13:02:07.023Z,100607.53
2023-05-14T13:04:34.305Z,100610.78
2023-05-14T13:07:01.185Z,100611.22
2023-05-14T13:09:28.148Z,100602.88
2023-05-14T13:11:54.935Z,100601.88
2023-05-14T13:14:21.844Z,100597.13
2023-05-14T13:16:48.578Z,100591.59
2023-05-14T13:19:15.681Z,100586.53
2023-05-14T13:21:43.533Z,100577.44
2023-05-14T13:24:10.523Z,100582.94
2023-05-14T13:26:37.837Z,100587.00
2023-05-14T13:29:04.873Z,100577.97
2023-05-14T13:31:31.769Z,100584.81
2023-05-14T13:33:59.388Z,100577.03
2023-05-14T13:36:26.412Z,100565.22
2023-05-14T13:38:53.295Z,100561.44
2023-05-14T13:41:21.542Z,100566.47
2023-05-14T13:43:48.658Z,100563.72
2023-05-14T13:46:15.575Z,100561.94
2023-05-14T13:48:42.211Z,100559.31
2023-05-14T13:51:09.033Z,100554.25
2023-05-14T13:53:36.109Z,100547.75
2023-05-14T13:56:02.781Z,100540.16
2023-05-14T13:58:29.964Z,100541.97
2023-05-14T14:00:56.908Z,100543.44
2023-05-14T14:03:24.025Z,100532.66
2023-05-14T14:05:52.070Z,100524.47
2023-05-14T14:08:23.824Z,100536.72
2023-05-14T14:10:52.081Z,100526.22
2023-05-14T14:13:21.110Z,100521.72
2023-05-14T14:15:49.157Z,100523.81
2023-05-14T14:18:16.033Z,100520.47
2023-05-14T14:20:43.837Z,100511.66
2023-05-14T14:23:10.639Z,100517.44
2023-05-14T14:25:37.651Z,100508.38
2023-05-14T14:28:05.124Z,100517.97
2023-05-14T14:30:32.680Z,100501.91
2023-05-14T14:33:01.256Z,100507.81
2023-05-14T14:35:28.288Z,100496.16
2023-05-14T14:37:55.748Z,100495.34
2023-05-14T14:40:23.849Z,100500.44
2023-05-14T14:42:52.426Z,100496.22
2023-05-14T14:45:19.170Z,100504.53
2023-05-14T14:47:46.488Z,100498.50
2023-05-14T14:50:13.686Z,100494.31
2023-05-14T14:52:45.596Z,100495.63
2023-05-14T14:55:12.906Z,100491.81
2023-05-14T14:57:39.938Z,100488.06
2023-05-14T15:00:07.763Z,100489.97
2023-05-14T15:02:35.050Z,100482.63
2023-05-14T15:05:02.343Z,100482.28
2023-05-14T15:07:32.737Z,100477.47
2023-05-14T15:09:59.488Z,100479.88
2023-05-14T15:12:26.161Z,100474.03
2023-05-14T15:14:52.890Z,100474.72
2023-05-14T15:17:19.448Z,100477.72
2023-05-14T15:19:46.198Z,100477.19
2023-05-14T15:22:13.403Z,100472.53
2023-05-14T15:24:40.440Z,100470.13
2023-05-14T15:27:06.986Z,100467.41
2023-05-14T15:29:33.993Z,100469.97
2023-05-14T15:32:00.735Z,100473.38
2023-05-14T15:34:27.801Z,100467.66
2023-05-14T15:36:54.371Z,100461.28
2023-05-14T15:39:20.925Z,100463.56
2023-05-14T15:41:47.463Z,100466.41
2023-05-14T15:44:14.136Z,100462.84
2023-05-14T15:46:40.798Z,100458.91
2023-05-14T15:49:07.503Z,100456.81
2023-05-14T15:51:34.625Z,100451.53
2023-05-14T15:54:01.981Z,100444.34
2023-05-14T15:56:28.549Z,100441.72
2023-05-14T15:58:55.203Z,100438.84
2023-05-14T16:01:21.857Z,100435.72
2023-05-14T16:03:48.662Z,100433.91
2023-05-14T16:06:15.326Z,100440.78
2023-05-14T16:08:41.896Z,100434.94
2023-05-14T16:11:08.673Z,100432.56
2023-05-14T16:13:37.649Z,100434.00
2023-05-14T16:16:04.535Z,100432.94
2023-05-14T16:18:31.597Z,100424.91
2023-05-14T16:20:58.808Z,100433.66
2023-05-14T16:23:25.965Z,100435.13
2023-05-14T16:25:53.415Z,100435.31
2023-05-14T16:28:20.522Z,100434.63
2023-05-14T16:30:47.275Z,100429.47
2023-05-14T16:33:13.869Z,100432.97
2023-05-14T16:35:40.918Z,100434.88
2023-05-14T16:38:08.338Z,100437.56
2023-05-14T16:40:35.085Z,100433.66
2023-05-14T16:43:02.440Z,100432.34
2023-05-14T16:45:29.790Z,100434.75
2023-05-14T16:47:56.899Z,100435.53
2023-05-14T16:50:23.556Z,100432.16
2023-05-14T16:52:50.857Z,100435.25
2023-05-14T16:55:19.372Z,100432.31
2023-05-14T16:57:46.386Z,100433.22
2023-05-14T17:00:13.945Z,100437.91
2023-05-14T17:02:41.377Z,100434.03
2023-05-14T17:05:08.503Z,100429.97
2023-05-14T17:07:37.231Z,100429.06
2023-05-14T17:10:04.581Z,100431.13
2023-05-14T17:12:31.877Z,100432.19
2023-05-14T17:14:58.931Z,100430.59
2023-05-14T17:17:25.713Z,100431.31
2023-05-14T17:19:52.114Z,100433.47
2023-05-14T17:22:18.945Z,100428.31
2023-05-14T17:24:45.546Z,100431.69
2023-05-14T17:27:12.093Z,100437.16
2023-05-14T17:29:38.923Z,100433.78
2023-05-14T17:32:06.032Z,100437.47
2023-05-14T17:34:33.042Z,100434.28
2023-05-14T17:37:00.783Z,100436.84
2023-05-14T17:39:28.097Z,100442.94
2023-05-14T17:41:54.929Z,100443.47
2023-05-14T17:44:21.920Z,100444.44
2023-05-14T17:46:49.634Z,100440.69
2023-05-14T17:49:16.213Z,100451.56
2023-05-14T17:51:42.776Z,100445.63
2023-05-14T17:54:09.653Z,100455.00
2023-05-14T17:56:36.373Z,100457.25
2023-05-14T17:59:03.689Z,100464.34
2023-05-14T18:01:34.124Z,100462.00
2023-05-14T18:04:01.062Z,100461.00
2023-05-14T18:06:28.044Z,100466.31
2023-05-14T18:08:55.022Z,100471.00
2023-05-14T18:11:21.826Z,100471.34
2023-05-14T18:13:48.685Z,100465.03
2023-05-14T18:16:16.158Z,100470.50
2023-05-14T18:18:42.802Z,100466.97
2023-05-14T18:21:09.848Z,100468.13
2023-05-14T18:23:36.598Z,100477.22
2023-05-14T18:26:03.151Z,100475.13
2023-05-14T18:28:30.374Z,100472.31
2023-05-14T18:30:57.841Z,100474.22
2023-05-14T18:33:24.889Z,100480.66
2023-05-14T18:35:52.045Z,100476.16
2023-05-14T18:38:19.713Z,100477.56
2023-05-14T18:40:46.669Z,100472.25
2023-05-14T18:43:15.057Z,100470.59
2023-05-14T18:45:42.152Z,100474.09
2023-05-14T18:48:09.715Z,100474.78
2023-05-14T18:50:38.166Z,100483.75
2023-05-14T18:53:06.578Z,100481.38
2023-05-14T18:55:34.861Z,100482.72
2023-05-14T18:58:03.084Z,100489.25
2023-05-14T19:00:29.649Z,100480.91
2023-05-14T19:02:56.218Z,100487.41
2023-05-14T19:05:23.297Z,100484.94
2023-05-14T19:07:50.489Z,100483.50
2023-05-14T19:10:17.055Z,100487.22
2023-05-14T19:12:43.893Z,100488.00
2023-05-14T19:15:10.752Z,100502.50
2023-05-14T19:17:37.963Z,100503.34
2023-05-14T19:20:06.241Z,100503.34
2023-05-14T19:22:33.985Z,100506.56
2023-05-14T19:25:00.513Z,100511.00
2023-05-14T19:27:27.596Z,100520.66
2023-05-14T19:29:54.271Z,100523.47
2023-05-14T19:32:20.889Z,100519.53
2023-05-14T19:34:49.533Z,100530.75
2023-05-14T19:37:17.948Z,100529.53
2023-05-14T19:39:45.554Z,100536.75
2023-05-14T19:42:12.714Z,100530.75
2023-05-14T19:44:39.627Z,100539.59
2023-05-14T19:47:06.421Z,100542.38
2023-05-14T19:49:33.098Z,100540.38
2023-05-14T19:51:59.702Z,100550.00
2023-05-14T19:54:26.745Z,100546.00
2023-05-14T19:56:54.641Z,100556.03
2023-05-14T19:59:21.626Z,100550.84
2023-05-14T20:01:48.772Z,100545.22
2023-05-14T20:04:15.983Z,100551.63
2023-05-14T20:06:45.296Z,100556.41
2023-05-14T20:09:13.668Z,100550.00
2023-05-14T20:11:40.549Z,100552.81
2023-05-14T20:14:07.406Z,100542.00
2023-05-14T20:16:34.097Z,100550.84
2023-05-14T20:19:01.722Z,100551.66
2023-05-14T20:21:28.592Z,100552.81
2023-05-14T20:23:55.812Z,100551.63
2023-05-14T20:26:22.513Z,100547.19
2023-05-14T20:28:49.496Z,100540.34
2023-05-14T20:31:16.493Z,100537.97
2023-05-14T20:33:43.179Z,100536.75
2023-05-14T20:36:09.875Z,100531.53
2023-05-14T20:38:37.167Z,100533.16
2023-05-14T20:41:03.897Z,100531.53
2023-05-14T20:43:31.776Z,100531.94
2023-05-14T20:45:59.068Z,100527.13
2023-05-14T20:48:26.340Z,100525.94
2023-05-14T20:50:53.023Z,100523.16
2023-05-14T20:53:20.065Z,100527.16
2023-05-14T20:55:46.727Z,100525.94
2023-05-14T20:58:13.403Z,100526.75
2023-05-14T21:00:40.002Z,100528.28
2023-05-14T21:03:07.077Z,100526.22
2023-05-14T21:05:33.995Z,100515.50
2023-05-14T21:08:00.717Z,100509.91
2023-05-14T21:10:27.553Z,100517.03
2023-05-14T21:12:54.860Z,100509.78
2023-05-14T21:15:21.631Z,100514.25
2023-05-14T21:17:48.417Z,100503.38
2023-05-14T21:20:15.520Z,100509.38
2023-05-14T21:22:42.389Z,100514.16
2023-05-14T21:25:09.561Z,100508.19
2023-05-14T21:27:37.438Z,100506.91
2023-05-14T21:30:04.556Z,100516.81
2023-05-14T21:32:31.952Z,100511.94
2023-05-14T21:35:00.845Z,100507.88
2023-05-14T21:37:27.769Z,100508.25
2023-05-14T21:39:54.342Z,100511.88
2023-05-14T21:42:21.123Z,100510.31
2023-05-14T21:44:48.226Z,100502.31
2023-05-14T21:47:15.984Z,100518.59
2023-05-14T21:49:43.523Z,100509.53
2023-05-14T21:52:10.740Z,100500.69
2023-05-14T21:54:37.617Z,100505.09
2023-05-14T21:57:04.455Z,100503.50
2023-05-14T21:59:31.051Z,100511.81
2023-05-14T22:02:07.040Z,100504.94
2023-05-14T22:04:35.068Z,100511.97
2023-05-14T22:07:04.711Z,100515.94
2023-05-14T22:09:32.081Z,100513.63
2023-05-14T22:11:59.622Z,100518.75
2023-05-14T22:14:29.347Z,100519.81
2023-05-14T22:16:56.598Z,100511.19
2023-05-14T22:19:24.245Z,100509.91
2023-05-14T22:21:51.100Z,100510.59
2023-05-14T22:24:18.294Z,100501.06
2023-05-14T22:26:45.337Z,100506.97
2023-05-14T22:29:12.161Z,100510.59
2023-05-14T22:31:39.295Z,100504.88
2023-05-14T22:34:05.990Z,100508.38
2023-05-14T22:36:33.887Z,100503.06
2023-05-14T22:39:00.831Z,100503.88
2023-05-14T22:41:28.169Z,100504.75
2023-05-14T22:43:54.862Z,100504.28
2023-05-14T22:46:21.734Z,100508.59
2023-05-14T22:48:49.202Z,100500.56
2023-05-14T22:51:16.440Z,100506.91
2023-05-14T22:53:43.731Z,100489.44
2023-05-14T22:56:10.637Z,100499.91
2023-05-14T22:58:37.540Z,100499.44
2023-05-14T23:01:04.682Z,100491.00
2023-05-14T23:03:31.557Z,100488.56
2023-05-14T23:05:58.299Z,100491.97
2023-05-14T23:08:25.228Z,100490.13
2023-05-14T23:10:53.140Z,100482.91
2023-05-14T23:13:20.392Z,100484.50
2023-05-14T23:15:47.112Z,100482.44
2023-05-14T23:18:14.402Z,100480.88
2023-05-14T23:20:41.119Z,100478.22
2023-05-14T23:23:08.108Z,100478.53
2023-05-14T23:25:35.121Z,100479.38
2023-05-14T23:28:02.555Z,100479.81
2023-05-14T23:30:29.222Z,100476.56
2023-05-14T23:32:56.838Z,100470.03
2023-05-14T23:35:24.126Z,100472.00
2023-05-14T23:37:51.768Z,100480.03
2023-05-14T23:40:19.724Z,100465.69
2023-05-14T23:42:46.958Z,100472.44
2023-05-14T23:45:13.739Z,100471.59
2023-05-14T23:47:40.956Z,100459.53
2023-05-14T23:50:08.015Z,100473.44
2023-05-14T23:52:34.873Z,100464.88
2023-05-14T23:55:01.564Z,100459.53
2023-05-14T23:57:28.555Z,100458.03
2023-05-14T23:59:55.642Z,100451.94
